createdAt,value
2018-01-19T00:02:11.687Z,99691.19
2018-01-19T00:04:39.274Z,99695.52
2018-01-19T00:07:06.902Z,99698.11
2018-01-19T00:09:34.487Z,99690.50
2018-01-19T00:12:02.107Z,99692.96
2018-01-19T00:14:29.689Z,99703.16
2018-01-19T00:16:58.954Z,99704.73
2018-01-19T00:19:26.545Z,99710.52
2018-01-19T00:21:54.191Z,99707.45
2018-01-19T00:24:21.801Z,99713.00
2018-01-19T00:26:49.628Z,99713.00
2018-01-19T00:29:17.201Z,99713.85
2018-01-19T00:31:44.811Z,99710.41
2018-01-19T00:34:12.414Z,99714.67
2018-01-19T00:36:40.018Z,99707.20
2018-01-19T00:39:07.606Z,99709.81
2018-01-19T00:41:35.232Z,99705.88
2018-01-19T00:44:02.806Z,99714.33
2018-01-19T00:46:30.442Z,99711.20
2018-01-19T00:48:58.049Z,99710.79
2018-01-19T00:51:25.844Z,99714.89
2018-01-19T00:53:53.609Z,99722.12
2018-01-19T00:56:21.254Z,99718.55
2018-01-19T00:58:48.881Z,99730.72
2018-01-19T01:01:16.498Z,99726.75
2018-01-19T01:03:44.182Z,99727.98
2018-01-19T01:06:11.802Z,99729.19
2018-01-19T01:08:39.395Z,99720.53
2018-01-19T01:11:07.206Z,99722.95
2018-01-19T01:13:34.817Z,99721.63
2018-01-19T01:16:02.432Z,99731.03
2018-01-19T01:18:30.024Z,99749.89
2018-01-19T01:20:57.634Z,99747.23
2018-01-19T01:23:25.222Z,99746.39
2018-01-19T01:25:52.825Z,99746.36
2018-01-19T01:28:20.409Z,99756.34
2018-01-19T01:30:48.046Z,99754.61
2018-01-19T01:33:15.630Z,99750.58
2018-01-19T01:35:43.243Z,99749.14
2018-01-19T01:38:10.973Z,99750.64
2018-01-19T01:40:38.589Z,99748.37
2018-01-19T01:43:06.181Z,99757.14
2018-01-19T01:45:33.805Z,99751.93
2018-01-19T01:48:01.525Z,99754.86
2018-01-19T01:50:29.221Z,99756.43
2018-01-19T01:52:56.804Z,99762.97
2018-01-19T01:55:24.473Z,99761.69
2018-01-19T01:57:52.073Z,99764.42
2018-01-19T02:00:19.693Z,99768.52
2018-01-19T02:02:47.378Z,99758.92
2018-01-19T02:05:15.040Z,99753.33
2018-01-19T02:07:42.617Z,99755.98
2018-01-19T02:10:10.346Z,99757.72
2018-01-19T02:12:37.933Z,99760.03
2018-01-19T02:15:05.709Z,99761.41
2018-01-19T02:17:33.374Z,99758.05
2018-01-19T02:20:00.986Z,99759.70
2018-01-19T02:22:28.649Z,99756.77
2018-01-19T02:24:56.232Z,99750.47
2018-01-19T02:27:23.838Z,99755.89
2018-01-19T02:29:51.426Z,99754.00
2018-01-19T02:32:19.056Z,99763.06
2018-01-19T02:34:46.655Z,99765.37
2018-01-19T02:37:14.301Z,99762.80
2018-01-19T02:39:41.884Z,99770.80
2018-01-19T02:42:09.599Z,99778.38
2018-01-19T02:44:37.190Z,99771.22
2018-01-19T02:47:04.805Z,99767.45
2018-01-19T02:49:32.394Z,99776.19
2018-01-19T02:52:00.016Z,99778.05
2018-01-19T02:54:27.610Z,99780.11
2018-01-19T02:56:55.225Z,99779.66
2018-01-19T02:59:22.805Z,99786.25
2018-01-19T03:01:50.412Z,99790.14
2018-01-19T03:04:18.005Z,99795.56
2018-01-19T03:06:45.615Z,99795.60
2018-01-19T03:09:13.198Z,99787.56
2018-01-19T03:11:40.831Z,99802.44
2018-01-19T03:14:08.421Z,99799.91
2018-01-19T03:16:36.022Z,99807.70
2018-01-19T03:19:03.602Z,99806.03
2018-01-19T03:21:31.206Z,99801.53
2018-01-19T03:23:58.797Z,99803.27
2018-01-19T03:26:26.424Z,99816.52
2018-01-19T03:28:54.015Z,99809.73
2018-01-19T03:31:21.625Z,99818.30
2018-01-19T03:33:49.205Z,99822.56
2018-01-19T03:36:16.822Z,99817.52
2018-01-19T03:38:44.396Z,99828.77
2018-01-19T03:41:12.002Z,99828.48
2018-01-19T03:43:39.577Z,99830.59
2018-01-19T03:46:07.185Z,99838.97
2018-01-19T03:48:34.760Z,99841.70
2018-01-19T03:51:02.406Z,99845.50
2018-01-19T03:53:29.981Z,99847.45
2018-01-19T03:55:57.596Z,99850.92
2018-01-19T03:58:25.162Z,99851.95
2018-01-19T04:00:52.770Z,99851.66
2018-01-19T04:03:20.354Z,99854.19
2018-01-19T04:05:47.970Z,99852.91
2018-01-19T04:08:15.554Z,99861.80
2018-01-19T04:10:43.267Z,99852.53
2018-01-19T04:13:10.843Z,99852.83
2018-01-19T04:15:38.445Z,99857.05
2018-01-19T04:18:06.022Z,99856.64
2018-01-19T04:20:33.638Z,99862.88
2018-01-19T04:23:01.214Z,99863.14
2018-01-19T04:25:28.878Z,99873.23
2018-01-19T04:27:56.457Z,99882.89
2018-01-19T04:30:24.146Z,99868.48
2018-01-19T04:32:51.751Z,99875.23
2018-01-19T04:35:19.365Z,99887.33
2018-01-19T04:37:46.946Z,99883.59
2018-01-19T04:40:14.560Z,99894.16
2018-01-19T04:42:42.137Z,99893.49
2018-01-19T04:45:09.851Z,99894.93
2018-01-19T04:47:37.425Z,99896.13
2018-01-19T04:50:05.057Z,99898.00
2018-01-19T04:52:32.649Z,99906.98
2018-01-19T04:55:00.250Z,99899.28
2018-01-19T04:57:27.842Z,99901.81
2018-01-19T04:59:55.445Z,99907.11
2018-01-19T05:02:23.022Z,99908.55
2018-01-19T05:04:50.638Z,99918.67
2018-01-19T05:07:18.230Z,99916.00
2018-01-19T05:09:45.845Z,99917.66
2018-01-19T05:12:13.602Z,99921.52
2018-01-19T05:14:41.213Z,99919.69
2018-01-19T05:17:08.785Z,99916.63
2018-01-19T05:19:36.413Z,99924.16
2018-01-19T05:22:03.995Z,99928.06
2018-01-19T05:24:31.606Z,99928.48
2018-01-19T05:26:59.210Z,99934.89
2018-01-19T05:29:26.785Z,99936.62
2018-01-19T05:31:54.466Z,99938.68
2018-01-19T05:34:22.058Z,99940.84
2018-01-19T05:36:49.681Z,99938.73
2018-01-19T05:39:17.266Z,99938.48
2018-01-19T05:41:44.885Z,99939.02
2018-01-19T05:44:12.482Z,99935.52
2018-01-19T05:46:40.389Z,99945.63
2018-01-19T05:49:07.987Z,99943.98
2018-01-19T05:51:35.589Z,99955.58
2018-01-19T05:54:03.184Z,99950.58
2018-01-19T05:56:30.801Z,99952.33
2018-01-19T05:58:58.412Z,99966.23
2018-01-19T06:01:25.989Z,99967.48
2018-01-19T06:03:53.614Z,99970.56
2018-01-19T06:06:21.186Z,99976.39
2018-01-19T06:08:48.805Z,99970.44
2018-01-19T06:11:16.385Z,99979.09
2018-01-19T06:13:44.082Z,99978.15
2018-01-19T06:16:11.671Z,99983.86
2018-01-19T06:18:39.238Z,99985.72
2018-01-19T06:21:06.855Z,99987.30
2018-01-19T06:23:34.463Z,99992.22
2018-01-19T06:26:02.039Z,100001.74
2018-01-19T06:28:29.788Z,100002.95
2018-01-19T06:30:57.418Z,100010.08
2018-01-19T06:33:25.015Z,100012.05
2018-01-19T06:35:52.634Z,100016.39
2018-01-19T06:38:20.250Z,100024.34
2018-01-19T06:40:47.880Z,100020.61
2018-01-19T06:43:15.531Z,100024.80
2018-01-19T06:45:43.148Z,100037.56
2018-01-19T06:48:10.752Z,100033.66
2018-01-19T06:50:38.365Z,100054.69
2018-01-19T06:53:05.953Z,100048.23
2018-01-19T06:55:33.630Z,100053.23
2018-01-19T06:58:01.211Z,100061.73
2018-01-19T07:00:28.894Z,100064.55
2018-01-19T07:02:56.498Z,100065.76
2018-01-19T07:05:24.110Z,100073.94
2018-01-19T07:07:51.754Z,100087.92
2018-01-19T07:10:19.449Z,100100.43
2018-01-19T07:12:47.074Z,100081.35
2018-01-19T07:15:14.657Z,100105.13
2018-01-19T07:17:42.316Z,100099.04
2018-01-19T07:20:09.898Z,100090.91
2018-01-19T07:22:37.509Z,100101.21
2018-01-19T07:25:05.155Z,100106.34
2018-01-19T07:27:33.726Z,100114.95
2018-01-19T07:30:01.366Z,100116.84
2018-01-19T07:32:29.006Z,100122.64
2018-01-19T07:34:56.599Z,100128.14
2018-01-19T07:37:24.224Z,100129.03
2018-01-19T07:39:51.837Z,100148.67
2018-01-19T07:42:19.505Z,100143.84
2018-01-19T07:44:47.121Z,100149.95
2018-01-19T07:47:14.707Z,100153.57
2018-01-19T07:49:42.390Z,100175.06
2018-01-19T07:52:10.022Z,100172.36
2018-01-19T07:54:37.658Z,100177.16
2018-01-19T07:57:05.242Z,100173.42
2018-01-19T07:59:33.009Z,100169.33
2018-01-19T08:02:00.598Z,100170.86
2018-01-19T08:04:28.266Z,100183.02
2018-01-19T08:06:55.867Z,100185.37
2018-01-19T08:09:23.491Z,100181.45
2018-01-19T08:11:51.298Z,100198.17
2018-01-19T08:14:18.925Z,100190.17
2018-01-19T08:16:46.526Z,100195.59
2018-01-19T08:19:14.150Z,100204.27
2018-01-19T08:21:41.805Z,100202.27
2018-01-19T08:24:09.434Z,100209.69
2018-01-19T08:26:37.081Z,100212.28
2018-01-19T08:29:04.698Z,100209.04
2018-01-19T08:31:32.323Z,100222.20
2018-01-19T08:34:00.035Z,100227.94
2018-01-19T08:36:27.636Z,100225.59
2018-01-19T08:38:55.262Z,100233.53
2018-01-19T08:41:22.867Z,100231.00
2018-01-19T08:43:50.527Z,100239.63
2018-01-19T08:46:18.142Z,100236.06
2018-01-19T08:48:45.746Z,100259.92
2018-01-19T08:51:13.334Z,100269.58
2018-01-19T08:53:40.971Z,100258.56
2018-01-19T08:56:08.561Z,100248.78
2018-01-19T08:58:36.187Z,100251.88
2018-01-19T09:01:03.782Z,100256.09
2018-01-19T09:03:31.410Z,100265.95
2018-01-19T09:05:59.015Z,100259.16
2018-01-19T09:08:26.810Z,100265.02
2018-01-19T09:10:54.419Z,100274.64
2018-01-19T09:13:22.034Z,100267.84
2018-01-19T09:15:49.657Z,100270.48
2018-01-19T09:18:17.303Z,100267.88
2018-01-19T09:20:44.889Z,100270.13
2018-01-19T09:23:12.502Z,100273.25
2018-01-19T09:25:40.115Z,100271.27
2018-01-19T09:28:07.833Z,100283.18
2018-01-19T09:30:35.439Z,100274.52
2018-01-19T09:33:03.082Z,100272.09
2018-01-19T09:35:30.706Z,100277.61
2018-01-19T09:37:58.333Z,100274.46
2018-01-19T09:40:25.925Z,100283.69
2018-01-19T09:42:53.689Z,100285.27
2018-01-19T09:45:21.253Z,100284.98
2018-01-19T09:47:48.889Z,100288.88
2018-01-19T09:50:16.502Z,100295.90
2018-01-19T09:52:44.130Z,100292.53
2018-01-19T09:55:11.718Z,100292.41
2018-01-19T09:57:39.348Z,100300.40
2018-01-19T10:00:06.946Z,100311.66
2018-01-19T10:02:34.619Z,100305.02
2018-01-19T10:05:02.226Z,100308.32
2018-01-19T10:07:29.996Z,100319.88
2018-01-19T10:09:57.589Z,100316.46
2018-01-19T10:12:25.221Z,100325.98
2018-01-19T10:14:52.821Z,100328.14
2018-01-19T10:17:20.463Z,100334.16
2018-01-19T10:19:48.063Z,100357.84
2018-01-19T10:22:15.679Z,100340.27
2018-01-19T10:24:43.249Z,100341.72
2018-01-19T10:27:10.892Z,100338.16
2018-01-19T10:29:38.508Z,100353.73
2018-01-19T10:32:06.128Z,100347.52
2018-01-19T10:34:33.708Z,100358.06
2018-01-19T10:37:01.341Z,100352.11
2018-01-19T10:39:28.934Z,100356.92
2018-01-19T10:41:56.581Z,100350.61
2018-01-19T10:44:24.175Z,100344.20
2018-01-19T10:46:51.796Z,100343.70
2018-01-19T10:49:19.448Z,100358.38
2018-01-19T10:51:47.048Z,100342.31
2018-01-19T10:54:14.629Z,100345.87
2018-01-19T10:56:42.298Z,100338.66
2018-01-19T10:59:09.958Z,100345.64
2018-01-19T11:01:37.623Z,100358.05
2018-01-19T11:04:05.226Z,100346.36
2018-01-19T11:06:32.854Z,100361.22
2018-01-19T11:09:00.477Z,100350.66
2018-01-19T11:11:28.109Z,100355.83
2018-01-19T11:13:55.738Z,100338.27
2018-01-19T11:16:23.367Z,100359.69
2018-01-19T11:18:50.982Z,100342.63
2018-01-19T11:21:18.621Z,100343.62
2018-01-19T11:23:46.199Z,100340.92
2018-01-19T11:26:13.837Z,100340.45
2018-01-19T11:28:41.439Z,100336.63
2018-01-19T11:31:09.058Z,100342.37
2018-01-19T11:33:36.654Z,100333.95
2018-01-19T11:36:04.281Z,100331.05
2018-01-19T11:38:31.886Z,100335.90
2018-01-19T11:40:59.501Z,100324.92
2018-01-19T11:43:27.101Z,100330.02
2018-01-19T11:45:54.726Z,100332.67
2018-01-19T11:48:22.345Z,100325.28
2018-01-19T11:50:50.030Z,100328.24
2018-01-19T11:53:17.702Z,100327.95
2018-01-19T11:55:45.305Z,100326.81
2018-01-19T11:58:12.899Z,100331.14
2018-01-19T12:00:40.542Z,100324.38
2018-01-19T12:03:08.284Z,100329.07
2018-01-19T12:05:35.903Z,100330.65
2018-01-19T12:08:03.545Z,100323.08
2018-01-19T12:10:31.156Z,100330.59
2018-01-19T12:12:58.813Z,100320.19
2018-01-19T12:15:26.426Z,100319.52
2018-01-19T12:17:54.051Z,100314.69
2018-01-19T12:20:21.638Z,100313.20
2018-01-19T12:22:49.278Z,100316.41
2018-01-19T12:25:16.869Z,100313.83
2018-01-19T12:27:44.495Z,100310.88
2018-01-19T12:30:12.198Z,100308.48
2018-01-19T12:32:39.838Z,100300.64
2018-01-19T12:35:07.427Z,100306.34
2018-01-19T12:37:35.047Z,100315.09
2018-01-19T12:40:02.871Z,100309.39
2018-01-19T12:42:30.535Z,100308.93
2018-01-19T12:44:58.162Z,100317.25
2018-01-19T12:47:25.782Z,100309.45
2018-01-19T12:49:53.409Z,100308.05
2018-01-19T12:52:20.990Z,100314.33
2018-01-19T12:54:48.641Z,100324.95
2018-01-19T12:57:16.248Z,100325.03
2018-01-19T12:59:43.913Z,100306.81
2018-01-19T13:02:11.519Z,100301.89
2018-01-19T13:04:39.150Z,100307.54
2018-01-19T13:07:06.995Z,100309.17
2018-01-19T13:09:34.620Z,100296.59
2018-01-19T13:12:02.254Z,100309.47
2018-01-19T13:14:29.898Z,100295.23
2018-01-19T13:16:57.504Z,100302.63
2018-01-19T13:19:25.122Z,100303.33
2018-01-19T13:21:52.731Z,100298.55
2018-01-19T13:24:20.355Z,100306.73
2018-01-19T13:26:47.958Z,100308.09
2018-01-19T13:29:15.599Z,100309.09
2018-01-19T13:31:43.198Z,100301.25
2018-01-19T13:34:11.054Z,100316.00
2018-01-19T13:36:38.664Z,100307.78
2018-01-19T13:39:06.289Z,100314.17
2018-01-19T13:41:33.886Z,100306.45
2018-01-19T13:44:01.526Z,100303.92
2018-01-19T13:46:29.172Z,100305.66
2018-01-19T13:48:56.791Z,100299.86
2018-01-19T13:51:24.417Z,100304.17
2018-01-19T13:53:52.044Z,100296.12
2018-01-19T13:56:19.713Z,100293.95
2018-01-19T13:58:47.382Z,100292.52
2018-01-19T14:01:15.003Z,100289.16
2018-01-19T14:03:42.615Z,100294.31
2018-01-19T14:06:10.303Z,100292.06
2018-01-19T14:08:37.902Z,100290.58
2018-01-19T14:11:05.548Z,100307.25
2018-01-19T14:13:33.150Z,100291.08
2018-01-19T14:16:00.789Z,100290.43
2018-01-19T14:18:28.402Z,100290.92
2018-01-19T14:20:56.034Z,100287.62
2018-01-19T14:23:23.638Z,100295.08
2018-01-19T14:25:51.304Z,100301.95
2018-01-19T14:28:18.922Z,100300.05
2018-01-19T14:30:46.546Z,100305.73
2018-01-19T14:33:14.183Z,100302.69
2018-01-19T14:35:41.827Z,100299.64
2018-01-19T14:38:09.406Z,100302.86
2018-01-19T14:40:37.059Z,100299.67
2018-01-19T14:43:04.689Z,100303.20
2018-01-19T14:45:32.314Z,100304.56
2018-01-19T14:47:59.899Z,100293.66
2018-01-19T14:50:27.552Z,100296.07
2018-01-19T14:52:55.168Z,100301.92
2018-01-19T14:55:22.802Z,100297.31
2018-01-19T14:57:50.379Z,100296.99
2018-01-19T15:00:18.051Z,100296.28
2018-01-19T15:02:45.658Z,100317.73
2018-01-19T15:05:13.299Z,100296.30
2018-01-19T15:07:40.906Z,100309.38
2018-01-19T15:10:08.559Z,100304.81
2018-01-19T15:12:36.141Z,100313.59
2018-01-19T15:15:03.726Z,100307.11
2018-01-19T15:17:31.381Z,100298.13
2018-01-19T15:19:58.984Z,100304.73
2018-01-19T15:22:26.598Z,100301.50
2018-01-19T15:24:54.192Z,100302.75
2018-01-19T15:27:21.941Z,100302.13
2018-01-19T15:29:49.566Z,100295.64
2018-01-19T15:32:17.194Z,100297.72
2018-01-19T15:34:44.821Z,100298.46
2018-01-19T15:37:12.474Z,100290.73
2018-01-19T15:39:40.086Z,100286.33
2018-01-19T15:42:07.725Z,100286.54
2018-01-19T15:44:35.353Z,100278.64
2018-01-19T15:47:02.958Z,100283.09
2018-01-19T15:49:30.568Z,100278.81
2018-01-19T15:51:58.179Z,100287.75
2018-01-19T15:54:25.899Z,100281.64
2018-01-19T15:56:53.494Z,100284.79
2018-01-19T15:59:21.118Z,100283.67
2018-01-19T16:01:48.710Z,100282.47
2018-01-19T16:04:16.333Z,100285.62
2018-01-19T16:06:43.918Z,100281.47
2018-01-19T16:09:11.568Z,100273.70
2018-01-19T16:11:39.157Z,100283.53
2018-01-19T16:14:06.804Z,100278.71
2018-01-19T16:16:34.398Z,100274.56
2018-01-19T16:19:02.031Z,100271.78
2018-01-19T16:21:29.634Z,100275.60
2018-01-19T16:23:57.297Z,100274.89
2018-01-19T16:26:24.892Z,100277.70
2018-01-19T16:28:52.527Z,100273.96
2018-01-19T16:31:20.118Z,100280.94
2018-01-19T16:33:47.723Z,100284.63
2018-01-19T16:36:15.346Z,100290.02
2018-01-19T16:38:43.026Z,100284.66
2018-01-19T16:41:10.711Z,100289.27
2018-01-19T16:43:38.547Z,100285.48
2018-01-19T16:46:06.182Z,100292.24
2018-01-19T16:48:33.792Z,100293.09
2018-01-19T16:51:01.455Z,100289.78
2018-01-19T16:53:29.101Z,100295.09
2018-01-19T16:55:56.841Z,100291.55
2018-01-19T16:58:24.494Z,100289.84
2018-01-19T17:00:52.096Z,100282.45
2018-01-19T17:03:19.714Z,100292.95
2018-01-19T17:05:47.507Z,100290.47
2018-01-19T17:08:15.135Z,100293.58
2018-01-19T17:10:42.765Z,100298.81
2018-01-19T17:13:10.386Z,100289.30
2018-01-19T17:15:38.024Z,100300.63
2018-01-19T17:18:06.461Z,100298.16
2018-01-19T17:20:34.053Z,100309.52
2018-01-19T17:23:01.917Z,100307.05
2018-01-19T17:25:29.515Z,100308.63
2018-01-19T17:27:57.107Z,100311.95
2018-01-19T17:30:24.733Z,100305.67
2018-01-19T17:32:52.382Z,100312.66
2018-01-19T17:35:19.977Z,100307.54
2018-01-19T17:37:47.657Z,100312.38
2018-01-19T17:40:15.264Z,100315.16
2018-01-19T17:42:42.866Z,100310.27
2018-01-19T17:45:10.565Z,100314.66
2018-01-19T17:47:38.191Z,100313.54
2018-01-19T17:50:05.825Z,100313.33
2018-01-19T17:52:33.448Z,100315.58
2018-01-19T17:55:01.073Z,100318.17
2018-01-19T17:57:28.660Z,100320.66
2018-01-19T17:59:56.298Z,100319.04
2018-01-19T18:02:23.939Z,100321.98
2018-01-19T18:04:51.597Z,100323.84
2018-01-19T18:07:20.058Z,100331.30
2018-01-19T18:09:47.718Z,100325.67
2018-01-19T18:12:15.321Z,100332.57
2018-01-19T18:14:42.953Z,100324.22
2018-01-19T18:17:10.562Z,100318.16
2018-01-19T18:19:38.515Z,100323.30
2018-01-19T18:22:06.186Z,100326.10
2018-01-19T18:24:33.825Z,100324.89
2018-01-19T18:27:01.524Z,100329.88
2018-01-19T18:29:29.121Z,100321.27
2018-01-19T18:31:56.758Z,100324.80
2018-01-19T18:34:24.376Z,100323.02
2018-01-19T18:36:52.075Z,100325.94
2018-01-19T18:39:19.709Z,100317.16
2018-01-19T18:41:47.311Z,100322.55
2018-01-19T18:44:14.950Z,100316.88
2018-01-19T18:46:42.570Z,100315.17
2018-01-19T18:49:10.230Z,100325.09
2018-01-19T18:51:37.840Z,100320.59
2018-01-19T18:54:05.488Z,100327.17
2018-01-19T18:56:33.155Z,100324.96
2018-01-19T18:59:00.790Z,100322.30
2018-01-19T19:01:28.388Z,100317.41
2018-01-19T19:03:56.027Z,100319.89
2018-01-19T19:06:23.633Z,100318.58
2018-01-19T19:08:51.282Z,100318.27
2018-01-19T19:11:18.907Z,100316.98
2018-01-19T19:13:46.538Z,100318.27
2018-01-19T19:16:14.126Z,100313.70
2018-01-19T19:18:41.773Z,100316.53
2018-01-19T19:21:09.372Z,100318.16
2018-01-19T19:23:37.002Z,100320.27
2018-01-19T19:26:04.617Z,100314.72
2018-01-19T19:28:32.259Z,100316.22
2018-01-19T19:30:59.885Z,100318.46
2018-01-19T19:33:27.548Z,100314.60
2018-01-19T19:35:55.151Z,100315.76
2018-01-19T19:38:22.779Z,100314.91
2018-01-19T19:40:50.385Z,100320.92
2018-01-19T19:43:18.165Z,100319.13
2018-01-19T19:45:45.755Z,100316.47
2018-01-19T19:48:13.441Z,100316.47
2018-01-19T19:50:41.046Z,100319.30
2018-01-19T19:53:08.689Z,100313.28
2018-01-19T19:55:36.289Z,100305.39
2018-01-19T19:58:04.063Z,100320.39
2018-01-19T20:00:31.694Z,100319.77
2018-01-19T20:02:59.357Z,100315.88
2018-01-19T20:05:27.069Z,100323.39
2018-01-19T20:07:54.797Z,100321.77
2018-01-19T20:10:22.418Z,100319.73
2018-01-19T20:12:50.041Z,100319.80
2018-01-19T20:15:17.656Z,100319.48
2018-01-19T20:17:45.360Z,100311.10
2018-01-19T20:20:12.979Z,100319.53
2018-01-19T20:22:40.683Z,100316.29
2018-01-19T20:25:08.342Z,100322.39
2018-01-19T20:27:36.199Z,100325.58
2018-01-19T20:30:03.834Z,100332.20
2018-01-19T20:32:31.494Z,100335.09
2018-01-19T20:34:59.106Z,100332.08
2018-01-19T20:37:26.774Z,100332.94
2018-01-19T20:39:54.391Z,100333.83
2018-01-19T20:42:22.039Z,100328.46
2018-01-19T20:44:49.680Z,100328.76
2018-01-19T20:47:17.320Z,100331.61
2018-01-19T20:49:44.976Z,100327.81
2018-01-19T20:52:12.654Z,100334.50
2018-01-19T20:54:41.115Z,100336.30
2018-01-19T20:57:08.791Z,100342.94
2018-01-19T20:59:36.380Z,100342.52
2018-01-19T21:02:04.360Z,100344.02
2018-01-19T21:04:32.036Z,100340.93
2018-01-19T21:06:59.914Z,100343.79
2018-01-19T21:09:27.568Z,100343.29
2018-01-19T21:11:55.185Z,100343.11
2018-01-19T21:14:22.829Z,100339.73
2018-01-19T21:16:50.464Z,100344.20
2018-01-19T21:19:18.075Z,100337.34
2018-01-19T21:21:45.701Z,100345.17
2018-01-19T21:24:13.307Z,100346.17
2018-01-19T21:26:40.943Z,100348.77
2018-01-19T21:29:08.554Z,100350.36
2018-01-19T21:31:36.199Z,100353.19
2018-01-19T21:34:04.820Z,100356.84
2018-01-19T21:36:32.450Z,100354.31
2018-01-19T21:39:00.063Z,100349.01
2018-01-19T21:41:27.676Z,100347.45
2018-01-19T21:43:55.344Z,100350.72
2018-01-19T21:46:22.980Z,100352.09
2018-01-19T21:48:50.573Z,100347.20
2018-01-19T21:51:18.215Z,100357.38
2018-01-19T21:53:45.814Z,100358.70
2018-01-19T21:56:13.423Z,100352.86
2018-01-19T21:58:41.047Z,100357.72
2018-01-19T22:01:08.678Z,100359.25
2018-01-19T22:03:36.282Z,100357.06
2018-01-19T22:06:03.890Z,100369.17
2018-01-19T22:08:31.512Z,100370.80
2018-01-19T22:10:59.337Z,100368.15
2018-01-19T22:13:26.966Z,100366.47
2018-01-19T22:15:54.561Z,100365.94
2018-01-19T22:18:22.219Z,100367.33
2018-01-19T22:20:49.883Z,100365.02
2018-01-19T22:23:17.505Z,100368.38
2018-01-19T22:25:45.115Z,100368.83
2018-01-19T22:28:12.747Z,100359.04
2018-01-19T22:30:40.341Z,100365.44
2018-01-19T22:33:07.982Z,100359.84
2018-01-19T22:35:35.589Z,100361.09
2018-01-19T22:38:03.209Z,100355.30
2018-01-19T22:40:30.823Z,100347.11
2018-01-19T22:42:58.444Z,100349.17
2018-01-19T22:45:26.026Z,100349.34
2018-01-19T22:47:53.722Z,100354.42
2018-01-19T22:50:21.324Z,100362.13
2018-01-19T22:52:48.957Z,100357.41
2018-01-19T22:55:16.622Z,100357.88
2018-01-19T22:57:44.261Z,100358.91
2018-01-19T23:00:26.562Z,100354.98
2018-01-19T23:02:54.210Z,100355.45
2018-01-19T23:05:21.817Z,100365.36
2018-01-19T23:07:49.455Z,100363.39
2018-01-19T23:10:17.082Z,100366.27
2018-01-19T23:12:44.720Z,100361.09
2018-01-19T23:15:12.314Z,100358.63
2018-01-19T23:17:39.954Z,100360.62
2018-01-19T23:20:07.537Z,100362.36
2018-01-19T23:22:35.180Z,100366.16
2018-01-19T23:25:02.861Z,100365.52
2018-01-19T23:27:30.507Z,100363.75
2018-01-19T23:29:58.101Z,100360.04
2018-01-19T23:32:25.714Z,100355.63
2018-01-19T23:34:53.310Z,100355.63
2018-01-19T23:37:20.934Z,100352.31
2018-01-19T23:39:48.549Z,100355.44
2018-01-19T23:42:16.264Z,100357.74
2018-01-19T23:44:43.859Z,100356.12
2018-01-19T23:47:11.495Z,100359.00
2018-01-19T23:49:39.093Z,100347.67
2018-01-19T23:52:06.739Z,100356.89
2018-01-19T23:54:34.317Z,100352.16
2018-01-19T23:57:01.930Z,100355.52
2018-01-19T23:59:29.518Z,100347.80
